sensor_id;sensor_type;location;lat;lon;timestamp;pressure;altitude;pressure_sealevel;temperature;humidity
59315;BME280;46521;50.160;20.802;2022-08-11T00:06:48;100347.08;;;18.75;51.06
59315;BME280;46521;50.160;20.802;2022-08-11T00:27:13;100337.18;;;18.76;51.26
59315;BME280;46521;50.160;20.802;2022-08-11T00:37:19;100337.19;;;18.69;51.93
59315;BME280;46521;50.160;20.802;2022-08-11T01:08:10;100336.27;;;18.22;52.84
59315;BME280;46521;50.160;20.802;2022-08-11T01:49:58;100316.27;;;17.69;54.69
59315;BME280;46521;50.160;20.802;2022-08-11T02:00:16;100326.59;;;17.79;54.95
59315;BME280;46521;50.160;20.802;2022-08-11T02:10:29;100318.36;;;17.80;54.77
59315;BME280;46521;50.160;20.802;2022-08-11T02:20:57;100327.53;;;17.58;55.43
59315;BME280;46521;50.160;20.802;2022-08-11T02:42:18;100322.22;;;16.80;56.12
59315;BME280;46521;50.160;20.802;2022-08-11T03:02:58;100333.28;;;16.55;56.94
59315;BME280;46521;50.160;20.802;2022-08-11T03:13:28;100335.33;;;16.53;57.30
59315;BME280;46521;50.160;20.802;2022-08-11T03:34:18;100332.25;;;16.13;57.98
59315;BME280;46521;50.160;20.802;2022-08-11T03:44:56;100348.33;;;16.19;57.95
59315;BME280;46521;50.160;20.802;2022-08-11T04:16:07;100344.19;;;16.17;58.61
59315;BME280;46521;50.160;20.802;2022-08-11T04:47:47;100352.73;;;16.49;59.57
59315;BME280;46521;50.160;20.802;2022-08-11T05:19:15;100379.47;;;18.87;58.35
59315;BME280;46521;50.160;20.802;2022-08-11T05:40:10;100368.92;;;20.24;56.60
59315;BME280;46521;50.160;20.802;2022-08-11T05:50:31;100367.16;;;20.05;56.72
59315;BME280;46521;50.160;20.802;2022-08-11T06:00:51;100364.91;;;20.02;56.41
59315;BME280;46521;50.160;20.802;2022-08-11T06:10:59;100379.41;;;20.32;55.59
59315;BME280;46521;50.160;20.802;2022-08-11T06:21:08;100376.83;;;21.15;54.74
59315;BME280;46521;50.160;20.802;2022-08-11T06:31:19;100367.59;;;21.91;53.79
59315;BME280;46521;50.160;20.802;2022-08-11T06:41:45;100364.45;;;22.85;52.94
59315;BME280;46521;50.160;20.802;2022-08-11T06:51:49;100365.88;;;23.71;51.82
59315;BME280;46521;50.160;20.802;2022-08-11T07:02:14;100354.53;;;24.38;50.83
59315;BME280;46521;50.160;20.802;2022-08-11T07:12:38;100356.56;;;25.11;49.31
59315;BME280;46521;50.160;20.802;2022-08-11T07:23:06;100357.33;;;25.62;48.01
59315;BME280;46521;50.160;20.802;2022-08-11T07:33:38;100340.91;;;26.13;46.90
59315;BME280;46521;50.160;20.802;2022-08-11T07:43:43;100336.53;;;26.39;46.28
59315;BME280;46521;50.160;20.802;2022-08-11T07:53:50;100328.80;;;26.53;45.46
59315;BME280;46521;50.160;20.802;2022-08-11T08:03:53;100331.31;;;26.92;44.46
59315;BME280;46521;50.160;20.802;2022-08-11T08:14:13;100324.50;;;27.27;43.36
59315;BME280;46521;50.160;20.802;2022-08-11T08:24:36;100317.66;;;27.73;42.53
59315;BME280;46521;50.160;20.802;2022-08-11T08:34:38;100315.84;;;27.94;41.79
59315;BME280;46521;50.160;20.802;2022-08-11T08:44:51;100311.72;;;27.23;41.11
59315;BME280;46521;50.160;20.802;2022-08-11T08:54:57;100305.30;;;26.64;41.45
59315;BME280;46521;50.160;20.802;2022-08-11T09:05:03;100289.06;;;27.49;40.77
59315;BME280;46521;50.160;20.802;2022-08-11T09:15:06;100289.20;;;27.27;39.98
59315;BME280;46521;50.160;20.802;2022-08-11T09:25:10;100278.58;;;27.94;38.85
59315;BME280;46521;50.160;20.802;2022-08-11T09:35:33;100256.08;;;28.19;38.00
59315;BME280;46521;50.160;20.802;2022-08-11T09:45:37;100255.82;;;28.11;37.70
59315;BME280;46521;50.160;20.802;2022-08-11T09:55:39;100252.88;;;26.91;37.46
59315;BME280;46521;50.160;20.802;2022-08-11T10:05:46;100234.55;;;26.33;38.25
59315;BME280;46521;50.160;20.802;2022-08-11T10:16:07;100223.64;;;26.28;37.84
59315;BME280;46521;50.160;20.802;2022-08-11T10:26:11;100223.75;;;25.84;37.77
59315;BME280;46521;50.160;20.802;2022-08-11T10:36:37;100220.67;;;26.30;38.17
59315;BME280;46521;50.160;20.802;2022-08-11T10:46:43;100197.23;;;27.51;36.55
59315;BME280;46521;50.160;20.802;2022-08-11T10:57:03;100192.71;;;28.50;35.80
59315;BME280;46521;50.160;20.802;2022-08-11T11:07:34;100199.73;;;27.63;35.95
59315;BME280;46521;50.160;20.802;2022-08-11T11:17:44;100258.48;;;24.64;38.38
59315;BME280;46521;50.160;20.802;2022-08-11T11:28:24;100242.35;;;21.52;42.47
59315;BME280;46521;50.160;20.802;2022-08-11T11:38:28;100251.78;;;20.23;44.28
59315;BME280;46521;50.160;20.802;2022-08-11T11:48:31;100241.62;;;20.00;45.62
59315;BME280;46521;50.160;20.802;2022-08-11T11:58:34;100237.17;;;20.12;47.13
59315;BME280;46521;50.160;20.802;2022-08-11T12:08:56;100221.33;;;20.61;47.62
59315;BME280;46521;50.160;20.802;2022-08-11T12:18:59;100217.39;;;21.26;47.62
59315;BME280;46521;50.160;20.802;2022-08-11T12:29:05;100218.47;;;22.04;47.66
59315;BME280;46521;50.160;20.802;2022-08-11T12:39:10;100196.75;;;23.00;46.46
59315;BME280;46521;50.160;20.802;2022-08-11T12:49:13;100188.78;;;23.17;46.67
59315;BME280;46521;50.160;20.802;2022-08-11T12:59:34;100199.22;;;23.83;46.20
59315;BME280;46521;50.160;20.802;2022-08-11T13:09:56;100198.89;;;24.25;46.25
59315;BME280;46521;50.160;20.802;2022-08-11T13:19:58;100171.99;;;24.53;45.37
59315;BME280;46521;50.160;20.802;2022-08-11T13:30:00;100164.47;;;24.55;45.83
59315;BME280;46521;50.160;20.802;2022-08-11T13:40:21;100159.23;;;24.65;45.63
59315;BME280;46521;50.160;20.802;2022-08-11T13:50:26;100169.95;;;24.77;45.26
59315;BME280;46521;50.160;20.802;2022-08-11T14:00:49;100156.55;;;24.87;45.34
59315;BME280;46521;50.160;20.802;2022-08-11T14:10:54;100133.28;;;25.08;44.82
59315;BME280;46521;50.160;20.802;2022-08-11T14:21:20;100138.88;;;25.24;44.15
59315;BME280;46521;50.160;20.802;2022-08-11T14:31:45;100132.78;;;25.33;44.28
59315;BME280;46521;50.160;20.802;2022-08-11T14:41:54;100141.50;;;24.74;44.14
59315;BME280;46521;50.160;20.802;2022-08-11T14:52:16;100128.80;;;23.27;44.86
59315;BME280;46521;50.160;20.802;2022-08-11T15:02:20;100139.94;;;22.55;45.35
59315;BME280;46521;50.160;20.802;2022-08-11T15:12:40;100158.75;;;22.07;46.46
59315;BME280;46521;50.160;20.802;2022-08-11T15:22:42;100188.95;;;21.67;47.42
59315;BME280;46521;50.160;20.802;2022-08-11T15:33:05;100186.58;;;21.40;49.16
59315;BME280;46521;50.160;20.802;2022-08-11T15:43:34;100172.41;;;21.33;50.21
59315;BME280;46521;50.160;20.802;2022-08-11T15:53:59;100166.28;;;21.26;50.56
59315;BME280;46521;50.160;20.802;2022-08-11T16:04:08;100158.77;;;21.47;51.23
59315;BME280;46521;50.160;20.802;2022-08-11T16:14:15;100191.19;;;21.70;51.11
59315;BME280;46521;50.160;20.802;2022-08-11T16:24:40;100191.30;;;21.27;51.16
59315;BME280;46521;50.160;20.802;2022-08-11T16:34:48;100182.78;;;20.74;51.25
59315;BME280;46521;50.160;20.802;2022-08-11T16:45:09;100196.69;;;20.14;51.31
59315;BME280;46521;50.160;20.802;2022-08-11T16:55:30;100185.22;;;19.61;52.21
59315;BME280;46521;50.160;20.802;2022-08-11T17:05:35;100171.17;;;19.21;53.17
59315;BME280;46521;50.160;20.802;2022-08-11T17:16:01;100149.57;;;19.09;54.86
59315;BME280;46521;50.160;20.802;2022-08-11T17:26:26;100137.19;;;19.08;55.39
59315;BME280;46521;50.160;20.802;2022-08-11T17:36:49;100137.62;;;19.05;56.20
59315;BME280;46521;50.160;20.802;2022-08-11T17:46:52;100119.88;;;19.04;56.65
59315;BME280;46521;50.160;20.802;2022-08-11T17:57:14;100128.55;;;19.06;57.37
59315;BME280;46521;50.160;20.802;2022-08-11T18:07:35;100149.99;;;19.06;58.28
59315;BME280;46521;50.160;20.802;2022-08-11T18:17:55;100160.72;;;18.99;58.71
59315;BME280;46521;50.160;20.802;2022-08-11T18:28:20;100167.55;;;18.95;59.02
59315;BME280;46521;50.160;20.802;2022-08-11T18:38:42;100177.67;;;18.73;59.51
59315;BME280;46521;50.160;20.802;2022-08-11T18:49:08;100201.56;;;18.68;60.31
59315;BME280;46521;50.160;20.802;2022-08-11T18:59:35;100209.20;;;18.64;60.35
59315;BME280;46521;50.160;20.802;2022-08-11T19:09:56;100208.17;;;18.52;60.66
59315;BME280;46521;50.160;20.802;2022-08-11T19:20:19;100197.27;;;18.40;60.87
59315;BME280;46521;50.160;20.802;2022-08-11T19:30:41;100204.27;;;18.28;60.94
59315;BME280;46521;50.160;20.802;2022-08-11T19:41:02;100200.95;;;18.19;61.56
59315;BME280;46521;50.160;20.802;2022-08-11T19:51:23;100196.22;;;18.01;61.25
59315;BME280;46521;50.160;20.802;2022-08-11T20:01:44;100196.79;;;17.90;61.84
59315;BME280;46521;50.160;20.802;2022-08-11T20:12:04;100183.98;;;17.78;61.72
59315;BME280;46521;50.160;20.802;2022-08-11T20:22:26;100195.27;;;17.67;61.79
59315;BME280;46521;50.160;20.802;2022-08-11T20:32:49;100191.09;;;17.44;62.29
59315;BME280;46521;50.160;20.802;2022-08-11T20:43:12;100182.22;;;17.37;62.47
59315;BME280;46521;50.160;20.802;2022-08-11T20:53:41;100178.91;;;16.93;62.39
59315;BME280;46521;50.160;20.802;2022-08-11T21:04:03;100192.27;;;16.65;62.53
59315;BME280;46521;50.160;20.802;2022-08-11T21:14:23;100189.17;;;16.12;62.35
59315;BME280;46521;50.160;20.802;2022-08-11T21:24:46;100204.16;;;15.91;63.06
59315;BME280;46521;50.160;20.802;2022-08-11T21:35:07;100210.55;;;15.97;63.49
59315;BME280;46521;50.160;20.802;2022-08-11T21:45:29;100208.23;;;16.09;63.51
59315;BME280;46521;50.160;20.802;2022-08-11T21:55:50;100215.22;;;16.10;63.53
59315;BME280;46521;50.160;20.802;2022-08-11T22:06:12;100211.52;;;16.11;63.52
59315;BME280;46521;50.160;20.802;2022-08-11T22:16:33;100214.17;;;15.89;63.75
59315;BME280;46521;50.160;20.802;2022-08-11T22:26:53;100199.25;;;15.58;64.08
59315;BME280;46521;50.160;20.802;2022-08-11T22:37:14;100198.08;;;15.46;64.45
59315;BME280;46521;50.160;20.802;2022-08-11T22:47:35;100192.57;;;15.32;64.49
59315;BME280;46521;50.160;20.802;2022-08-11T22:57:55;100191.83;;;15.39;64.53
59315;BME280;46521;50.160;20.802;2022-08-11T23:08:16;100189.86;;;15.11;64.82
59315;BME280;46521;50.160;20.802;2022-08-11T23:18:38;100169.82;;;14.85;64.83
59315;BME280;46521;50.160;20.802;2022-08-11T23:28:59;100155.95;;;14.90;65.09
59315;BME280;46521;50.160;20.802;2022-08-11T23:39:20;100147.59;;;14.93;65.26
59315;BME280;46521;50.160;20.802;2022-08-11T23:49:40;100138.70;;;14.71;65.35
